createdAt,value
2023-03-18T00:00:22.652Z,6.44
2023-03-18T00:03:22.733Z,6.47
2023-03-18T00:06:22.684Z,6.42
2023-03-18T00:09:22.665Z,6.43
2023-03-18T00:12:22.662Z,6.44
2023-03-18T00:15:22.667Z,6.47
2023-03-18T00:18:22.664Z,6.41
2023-03-18T00:21:22.666Z,6.41
2023-03-18T00:24:22.702Z,6.4
2023-03-18T00:27:22.676Z,6.33
2023-03-18T00:30:22.668Z,6.35
2023-03-18T00:33:22.671Z,6.29
2023-03-18T00:36:22.670Z,6.33
2023-03-18T00:39:22.674Z,6.33
2023-03-18T00:42:22.701Z,6.32
2023-03-18T00:45:22.681Z,6.33
2023-03-18T00:48:22.684Z,6.33
2023-03-18T00:51:22.693Z,6.35
2023-03-18T00:54:22.688Z,6.38
2023-03-18T00:57:22.694Z,6.39
2023-03-18T01:00:22.715Z,6.37
2023-03-18T01:03:22.690Z,6.43
2023-03-18T01:06:22.729Z,6.46
2023-03-18T01:09:22.706Z,6.49
2023-03-18T01:12:22.716Z,6.45
2023-03-18T01:15:22.711Z,6.46
2023-03-18T01:18:22.743Z,6.48
2023-03-18T01:21:22.724Z,6.48
2023-03-18T01:24:22.722Z,6.46
2023-03-18T01:27:22.717Z,6.47
2023-03-18T01:30:22.729Z,6.52
2023-03-18T01:33:22.741Z,6.5
2023-03-18T01:36:22.775Z,6.5
2023-03-18T01:39:22.744Z,6.5
2023-03-18T01:42:22.783Z,6.47
2023-03-18T01:45:22.749Z,6.55
2023-03-18T01:48:22.751Z,6.55
2023-03-18T01:51:22.754Z,6.49
2023-03-18T01:54:22.777Z,6.45
2023-03-18T01:57:22.766Z,6.43
2023-03-18T02:00:22.751Z,6.39
2023-03-18T02:03:22.764Z,6.35
2023-03-18T02:06:22.764Z,6.31
2023-03-18T02:09:22.775Z,6.33
2023-03-18T02:12:22.806Z,6.35
2023-03-18T02:15:22.786Z,6.35
2023-03-18T02:18:22.783Z,6.37
2023-03-18T02:21:22.851Z,6.36
2023-03-18T02:24:22.793Z,6.35
2023-03-18T02:27:22.789Z,6.35
2023-03-18T02:30:22.814Z,6.37
2023-03-18T02:33:22.805Z,6.37
2023-03-18T02:36:22.816Z,6.39
2023-03-18T02:39:22.816Z,6.39
2023-03-18T02:42:22.814Z,6.41
2023-03-18T02:45:22.824Z,6.39
2023-03-18T02:48:22.862Z,6.37
2023-03-18T02:51:22.840Z,6.36
2023-03-18T02:54:22.856Z,6.36
2023-03-18T02:57:22.843Z,6.36
2023-03-18T03:00:22.850Z,6.35
2023-03-18T03:03:23.035Z,6.36
2023-03-18T03:06:22.885Z,6.36
2023-03-18T03:09:22.878Z,6.36
2023-03-18T03:12:22.871Z,6.37
2023-03-18T03:15:22.877Z,6.36
2023-03-18T03:18:22.874Z,6.4
2023-03-18T03:21:22.883Z,6.4
2023-03-18T03:24:22.913Z,6.36
2023-03-18T03:27:22.894Z,6.4
2023-03-18T03:30:22.896Z,6.44
2023-03-18T03:33:22.900Z,6.47
2023-03-18T03:36:22.909Z,6.48
2023-03-18T03:39:22.914Z,6.49
2023-03-18T03:42:22.950Z,6.51
2023-03-18T03:45:22.935Z,6.52
2023-03-18T03:48:22.937Z,6.53
2023-03-18T03:51:22.934Z,6.56
2023-03-18T03:54:22.940Z,6.59
2023-03-18T03:57:22.942Z,6.57
2023-03-18T04:00:22.975Z,6.61
2023-03-18T04:03:22.949Z,6.6
2023-03-18T04:06:22.964Z,6.63
2023-03-18T04:09:22.964Z,6.63
2023-03-18T04:12:22.967Z,6.65
2023-03-18T04:15:22.974Z,6.68
2023-03-18T04:18:22.996Z,6.68
2023-03-18T04:21:22.980Z,6.73
2023-03-18T04:24:22.983Z,6.72
2023-03-18T04:27:22.996Z,6.76
2023-03-18T04:30:22.995Z,6.75
2023-03-18T04:33:23.002Z,6.78
2023-03-18T04:36:23.038Z,6.78
2023-03-18T04:39:23.043Z,6.81
2023-03-18T04:42:23.027Z,6.83
2023-03-18T04:45:23.033Z,6.85
2023-03-18T04:48:23.039Z,6.82
2023-03-18T04:51:23.035Z,6.85
2023-03-18T04:54:23.083Z,6.87
2023-03-18T04:57:23.063Z,6.89
2023-03-18T05:00:23.055Z,6.86
2023-03-18T05:03:23.068Z,6.9
2023-03-18T05:06:23.102Z,6.94
2023-03-18T05:09:23.078Z,6.95
2023-03-18T05:12:23.219Z,6.99
2023-03-18T05:15:23.206Z,6.99
2023-03-18T05:18:23.112Z,7.02
2023-03-18T05:21:23.120Z,7.02
2023-03-18T05:24:23.131Z,7.08
2023-03-18T05:27:23.160Z,7.08
2023-03-18T05:30:23.165Z,7.08
2023-03-18T05:33:23.425Z,7.09
2023-03-18T05:36:23.158Z,7.18
2023-03-18T05:39:23.161Z,7.23
2023-03-18T05:42:23.163Z,7.26
2023-03-18T05:45:23.186Z,7.27
2023-03-18T05:48:23.203Z,7.31
2023-03-18T05:51:23.191Z,7.29
2023-03-18T05:54:23.195Z,7.3
2023-03-18T05:57:23.200Z,7.33
2023-03-18T06:00:23.212Z,7.37
2023-03-18T06:03:23.246Z,7.41
2023-03-18T06:06:23.247Z,7.43
2023-03-18T06:09:23.231Z,7.48
2023-03-18T06:12:23.242Z,7.45
2023-03-18T06:15:23.247Z,7.45
2023-03-18T06:18:23.247Z,7.42
2023-03-18T06:21:23.254Z,7.43
2023-03-18T06:24:23.282Z,7.44
2023-03-18T06:27:23.258Z,7.49
2023-03-18T06:30:23.261Z,7.55
2023-03-18T06:33:23.274Z,7.5
2023-03-18T06:36:23.296Z,7.48
2023-03-18T06:39:23.285Z,7.48
2023-03-18T06:42:23.305Z,7.48
2023-03-18T06:45:23.288Z,7.45
2023-03-18T06:48:23.290Z,7.5
2023-03-18T06:51:23.294Z,7.49
2023-03-18T06:54:23.313Z,7.49
2023-03-18T06:57:23.304Z,7.49
2023-03-18T07:00:23.390Z,7.54
2023-03-18T07:03:23.313Z,7.59
2023-03-18T07:06:23.317Z,7.68
2023-03-18T07:09:23.322Z,7.78
2023-03-18T07:12:23.328Z,7.9
2023-03-18T07:15:23.327Z,7.93
2023-03-18T07:18:23.353Z,8.03
2023-03-18T07:21:23.543Z,8.01
2023-03-18T07:24:23.339Z,8.15
2023-03-18T07:27:23.343Z,8.19
2023-03-18T07:30:23.337Z,8.27
2023-03-18T07:33:23.345Z,8.36
2023-03-18T07:36:23.365Z,8.34
2023-03-18T07:39:23.336Z,8.24
2023-03-18T07:42:23.376Z,8.23
2023-03-18T07:45:23.348Z,8.27
2023-03-18T07:48:23.352Z,8.31
2023-03-18T07:51:23.366Z,8.37
2023-03-18T07:54:23.401Z,8.41
2023-03-18T07:57:23.393Z,8.52
2023-03-18T08:00:23.383Z,8.54
2023-03-18T08:03:23.392Z,8.5
2023-03-18T08:06:23.404Z,8.46
2023-03-18T08:09:23.434Z,8.46
2023-03-18T08:12:23.450Z,8.47
2023-03-18T08:15:23.445Z,8.48
2023-03-18T08:18:23.446Z,8.44
2023-03-18T08:21:23.454Z,8.44
2023-03-18T08:24:23.464Z,8.57
2023-03-18T08:27:23.473Z,8.58
2023-03-18T08:30:23.510Z,8.6
2023-03-18T08:33:23.490Z,8.65
2023-03-18T08:36:23.503Z,8.68
2023-03-18T08:39:23.519Z,8.7
2023-03-18T08:42:23.529Z,8.74
2023-03-18T08:45:23.538Z,8.8
2023-03-18T08:48:23.582Z,8.81
2023-03-18T08:51:23.561Z,8.88
2023-03-18T08:54:23.584Z,8.95
2023-03-18T08:57:23.590Z,8.97
2023-03-18T09:00:23.596Z,8.97
2023-03-18T09:03:23.622Z,8.95
2023-03-18T09:06:23.663Z,8.96
2023-03-18T09:09:28.553Z,9.07
2023-03-18T09:12:23.640Z,9.21
2023-03-18T09:15:23.656Z,9.1
2023-03-18T09:18:23.665Z,9.15
2023-03-18T09:21:23.677Z,9.25
2023-03-18T09:24:23.710Z,9.22
2023-03-18T09:27:23.696Z,9.21
2023-03-18T09:30:23.742Z,9.14
2023-03-18T09:33:23.744Z,9.22
2023-03-18T09:36:23.740Z,9.25
2023-03-18T09:39:23.747Z,9.26
2023-03-18T09:42:23.926Z,9.23
2023-03-18T09:45:23.779Z,9.27
2023-03-18T09:48:23.779Z,9.46
2023-03-18T09:51:23.798Z,9.49
2023-03-18T09:54:23.806Z,9.62
2023-03-18T09:57:23.820Z,9.56
2023-03-18T10:00:23.874Z,9.51
2023-03-18T10:03:23.847Z,9.42
2023-03-18T10:06:23.872Z,9.52
2023-03-18T10:09:23.883Z,9.47
2023-03-18T10:12:23.884Z,9.49
2023-03-18T10:15:23.896Z,9.59
2023-03-18T10:18:23.947Z,9.43
2023-03-18T10:21:23.924Z,9.52
2023-03-18T10:24:23.939Z,9.47
2023-03-18T10:27:23.950Z,9.53
2023-03-18T10:30:24.021Z,9.43
2023-03-18T10:33:23.998Z,9.42
2023-03-18T10:36:24.010Z,9.39
2023-03-18T10:39:23.999Z,9.31
2023-03-18T10:42:24.014Z,9.34
2023-03-18T10:45:24.023Z,9.21
2023-03-18T10:48:24.040Z,9.23
2023-03-18T10:51:24.059Z,9.29
2023-03-18T10:54:24.105Z,9.29
2023-03-18T10:57:24.084Z,9.29
2023-03-18T11:00:24.106Z,9.35
2023-03-18T11:03:24.118Z,9.45
2023-03-18T11:06:24.135Z,9.47
2023-03-18T11:09:24.149Z,9.36
2023-03-18T11:12:24.188Z,9.4
2023-03-18T11:15:24.175Z,9.39
2023-03-18T11:18:24.194Z,9.67
2023-03-18T11:21:24.213Z,9.54
2023-03-18T11:24:24.232Z,9.59
2023-03-18T11:27:24.249Z,9.51
2023-03-18T11:33:24.274Z,9.26
2023-03-18T11:36:24.296Z,9.3
2023-03-18T11:39:24.302Z,9.26
2023-03-18T11:42:24.324Z,9.17
2023-03-18T11:45:24.331Z,9.1
2023-03-18T11:48:24.368Z,8.99
2023-03-18T11:51:26.973Z,9.16
2023-03-18T11:54:24.366Z,9.03
2023-03-18T11:57:24.384Z,8.86
2023-03-18T12:00:24.392Z,8.77
2023-03-18T12:03:24.407Z,8.77
2023-03-18T12:06:24.431Z,8.76
2023-03-18T12:09:24.418Z,8.91
2023-03-18T12:12:24.447Z,9.09
2023-03-18T12:15:24.422Z,9.17
2023-03-18T12:18:24.436Z,9.02
2023-03-18T12:21:24.462Z,9.09
2023-03-18T12:24:24.469Z,8.99
2023-03-18T12:27:24.444Z,9.14
2023-03-18T12:30:24.455Z,9.11
2023-03-18T12:33:24.451Z,8.94
2023-03-18T12:36:24.461Z,8.86
2023-03-18T12:39:24.468Z,8.94
2023-03-18T12:42:24.496Z,8.99
2023-03-18T12:45:24.479Z,8.92
2023-03-18T12:48:40.819Z,8.89
2023-03-18T12:51:24.493Z,8.83
2023-03-18T12:54:24.507Z,8.87
2023-03-18T12:57:24.498Z,8.69
2023-03-18T13:00:24.665Z,8.71
2023-03-18T13:03:24.512Z,8.74
2023-03-18T13:06:24.515Z,8.6
2023-03-18T13:09:24.508Z,8.63
2023-03-18T13:12:24.516Z,8.58
2023-03-18T13:15:24.520Z,8.52
2023-03-18T13:18:24.552Z,8.46
2023-03-18T13:21:24.536Z,8.51
2023-03-18T13:24:24.531Z,8.55
2023-03-18T13:27:24.545Z,8.58
2023-03-18T13:30:24.547Z,8.62
2023-03-18T13:33:24.548Z,8.56
2023-03-18T13:36:24.576Z,8.58
2023-03-18T13:39:24.551Z,8.66
2023-03-18T13:42:24.556Z,8.66
2023-03-18T13:45:24.571Z,8.65
2023-03-18T13:48:24.565Z,8.6
2023-03-18T13:51:24.573Z,8.67
2023-03-18T13:54:24.600Z,8.67
2023-03-18T13:57:24.594Z,8.64
2023-03-18T14:00:24.581Z,8.7
2023-03-18T14:03:24.658Z,8.74
2023-03-18T14:06:24.593Z,8.74
2023-03-18T14:09:24.600Z,8.78
2023-03-18T14:12:24.718Z,8.79
2023-03-18T14:15:24.603Z,8.73
2023-03-18T14:18:27.206Z,8.71
2023-03-18T14:21:24.787Z,8.64
2023-03-18T14:24:24.624Z,8.72
2023-03-18T14:27:24.619Z,8.67
2023-03-18T14:30:24.650Z,8.66
2023-03-18T14:33:24.695Z,8.53
2023-03-18T14:36:24.638Z,8.39
2023-03-18T14:39:24.642Z,8.37
2023-03-18T14:42:24.641Z,8.49
2023-03-18T14:45:24.657Z,8.48
2023-03-18T14:48:24.686Z,8.42
2023-03-18T14:51:24.656Z,8.49
2023-03-18T14:54:24.659Z,8.41
2023-03-18T14:57:24.678Z,8.47
2023-03-18T15:00:24.679Z,8.39
2023-03-18T15:03:24.850Z,8.44
2023-03-18T15:06:24.703Z,8.43
2023-03-18T15:09:24.826Z,8.36
2023-03-18T15:12:24.689Z,8.41
2023-03-18T15:15:24.695Z,8.45
2023-03-18T15:18:24.704Z,8.35
2023-03-18T15:21:24.706Z,8.31
2023-03-18T15:24:24.744Z,8.32
2023-03-18T15:27:24.718Z,8.36
2023-03-18T15:30:24.711Z,8.37
2023-03-18T15:33:24.718Z,8.44
2023-03-18T15:36:24.718Z,8.45
2023-03-18T15:39:24.734Z,8.49
2023-03-18T15:42:24.763Z,8.52
2023-03-18T15:45:24.744Z,8.5
2023-03-18T15:48:24.764Z,8.5
2023-03-18T15:51:24.754Z,8.45
2023-03-18T15:54:24.771Z,8.35
2023-03-18T15:57:24.765Z,8.35
2023-03-18T16:00:24.895Z,8.37
2023-03-18T16:03:24.914Z,8.35
2023-03-18T16:06:24.778Z,8.32
2023-03-18T16:09:24.777Z,8.3
2023-03-18T16:12:24.775Z,8.34
2023-03-18T16:15:24.802Z,8.34
2023-03-18T16:18:24.814Z,8.3
2023-03-18T16:21:24.790Z,8.36
2023-03-18T16:24:24.801Z,8.33
2023-03-18T16:27:24.806Z,8.34
2023-03-18T16:30:24.821Z,8.32
2023-03-18T16:33:24.812Z,8.32
2023-03-18T16:36:24.848Z,8.31
2023-03-18T16:39:24.828Z,8.32
2023-03-18T16:42:24.842Z,8.32
2023-03-18T16:45:24.824Z,8.32
2023-03-18T16:48:24.832Z,8.31
2023-03-18T16:51:24.836Z,8.28
2023-03-18T16:54:24.862Z,8.26
2023-03-18T16:57:24.843Z,8.23
2023-03-18T17:00:24.847Z,8.24
2023-03-18T17:03:24.854Z,8.24
2023-03-18T17:06:24.851Z,8.26
2023-03-18T17:09:24.863Z,8.33
2023-03-18T17:12:24.888Z,8.32
2023-03-18T17:15:24.869Z,8.29
2023-03-18T17:18:24.867Z,8.28
2023-03-18T17:21:24.878Z,8.25
2023-03-18T17:24:24.890Z,8.19
2023-03-18T17:27:24.882Z,8.25
2023-03-18T17:30:24.915Z,8.21
2023-03-18T17:33:24.890Z,8.21
2023-03-18T17:36:24.902Z,8.15
2023-03-18T17:39:24.902Z,8.15
2023-03-18T17:42:24.906Z,8.14
2023-03-18T17:45:24.926Z,8.08
2023-03-18T17:48:24.938Z,8.13
2023-03-18T17:51:24.927Z,8.12
2023-03-18T17:54:24.922Z,8.09
2023-03-18T17:57:24.929Z,8.08
2023-03-18T18:00:24.943Z,7.99
2023-03-18T18:03:24.929Z,8.05
2023-03-18T18:06:24.972Z,8.01
2023-03-18T18:09:24.940Z,8.08
2023-03-18T18:12:24.959Z,8.04
2023-03-18T18:15:24.964Z,8
2023-03-18T18:18:24.956Z,8.01
2023-03-18T18:21:24.981Z,8
2023-03-18T18:24:24.993Z,7.94
2023-03-18T18:27:24.971Z,7.95
2023-03-18T18:30:24.987Z,7.96
2023-03-18T18:33:24.985Z,7.96
2023-03-18T18:36:24.993Z,7.91
2023-03-18T18:39:24.985Z,7.9
2023-03-18T18:42:25.017Z,7.84
2023-03-18T18:45:24.998Z,7.73
2023-03-18T18:48:25.012Z,7.66
2023-03-18T18:51:25.030Z,7.65
2023-03-18T18:54:25.053Z,7.62
2023-03-18T18:57:25.015Z,7.49
2023-03-18T19:00:25.125Z,7.48
2023-03-18T19:03:25.044Z,7.49
2023-03-18T19:06:25.029Z,7.43
2023-03-18T19:09:25.054Z,7.42
2023-03-18T19:12:25.043Z,7.44
2023-03-18T19:15:25.056Z,7.48
2023-03-18T19:18:25.080Z,7.43
2023-03-18T19:21:25.060Z,7.35
2023-03-18T19:24:25.066Z,7.39
2023-03-18T19:27:25.070Z,7.49
2023-03-18T19:30:25.107Z,7.51
2023-03-18T19:33:25.076Z,7.55
2023-03-18T19:36:25.098Z,7.53
2023-03-18T19:39:25.080Z,7.5
2023-03-18T19:42:25.086Z,7.5
2023-03-18T19:45:25.152Z,7.59
2023-03-18T19:48:25.090Z,7.64
2023-03-18T19:51:25.104Z,7.62
2023-03-18T19:54:25.123Z,7.62
2023-03-18T19:57:25.180Z,7.65
2023-03-18T20:00:25.117Z,7.66
2023-03-18T20:03:26.957Z,7.63
2023-03-18T20:06:25.115Z,7.67
2023-03-18T20:09:25.123Z,7.67
2023-03-18T20:12:25.154Z,7.65
2023-03-18T20:15:25.202Z,7.65
2023-03-18T20:18:25.142Z,7.7
2023-03-18T20:21:25.151Z,7.7
2023-03-18T20:24:25.148Z,7.69
2023-03-18T20:27:25.162Z,7.65
2023-03-18T20:30:25.204Z,7.62
2023-03-18T20:33:25.159Z,7.59
2023-03-18T20:36:25.163Z,7.57
2023-03-18T20:39:25.168Z,7.53
2023-03-18T20:42:25.170Z,7.57
2023-03-18T20:45:25.195Z,7.58
2023-03-18T20:48:25.204Z,7.58
2023-03-18T20:51:25.185Z,7.65
2023-03-18T20:54:25.184Z,7.64
2023-03-18T20:57:25.195Z,7.63
2023-03-18T21:00:25.206Z,7.67
2023-03-18T21:03:25.216Z,7.66
2023-03-18T21:06:25.232Z,7.69
2023-03-18T21:09:25.212Z,7.69
2023-03-18T21:12:25.216Z,7.75
2023-03-18T21:15:25.226Z,7.76
2023-03-18T21:18:25.223Z,7.8
2023-03-18T21:21:25.225Z,7.86
2023-03-18T21:24:25.252Z,7.9
2023-03-18T21:27:25.232Z,7.9
2023-03-18T21:30:25.239Z,7.89
2023-03-18T21:33:25.233Z,7.88
2023-03-18T21:36:25.236Z,7.95
2023-03-18T21:39:25.244Z,7.92
2023-03-18T21:42:25.280Z,7.93
2023-03-18T21:45:25.265Z,7.98
2023-03-18T21:48:25.259Z,8.03
2023-03-18T21:51:37.863Z,8.03
2023-03-18T21:54:25.262Z,8.06
2023-03-18T21:57:25.267Z,8.04
2023-03-18T22:00:25.426Z,8.05
2023-03-18T22:03:25.281Z,8.07
2023-03-18T22:06:25.280Z,8.08
2023-03-18T22:09:25.293Z,8.06
2023-03-18T22:12:25.292Z,8.06
2023-03-18T22:15:25.302Z,8.06
2023-03-18T22:18:25.379Z,8.01
2023-03-18T22:21:25.309Z,8.06
2023-03-18T22:24:25.307Z,8.01
2023-03-18T22:27:25.338Z,8.01
2023-03-18T22:30:25.325Z,7.97
2023-03-18T22:33:25.321Z,7.97
2023-03-18T22:36:25.348Z,7.97
2023-03-18T22:39:25.320Z,7.97
2023-03-18T22:42:25.322Z,7.99
2023-03-18T22:45:25.353Z,7.96
2023-03-18T22:48:25.327Z,7.95
2023-03-18T22:51:25.336Z,7.94
2023-03-18T22:54:25.373Z,7.9
2023-03-18T22:57:25.370Z,7.93
2023-03-18T23:00:25.427Z,7.97
2023-03-18T23:03:25.425Z,8
2023-03-18T23:06:25.449Z,8.02
2023-03-18T23:09:25.426Z,8.02
2023-03-18T23:12:25.453Z,8.08
2023-03-18T23:15:25.433Z,8.09
2023-03-18T23:18:25.427Z,8.14
2023-03-18T23:21:25.458Z,8.15
2023-03-18T23:24:25.424Z,8.22
2023-03-18T23:27:25.424Z,8.17
2023-03-18T23:30:25.470Z,8.18
2023-03-18T23:33:25.568Z,8.19
2023-03-18T23:36:25.428Z,8.26
2023-03-18T23:39:25.437Z,8.27
2023-03-18T23:42:25.425Z,8.29
2023-03-18T23:45:25.604Z,8.29
2023-03-18T23:48:25.449Z,8.31
2023-03-18T23:51:25.428Z,8.32
2023-03-18T23:54:25.430Z,8.34
2023-03-18T23:57:25.428Z,8.35
